createdAt,value
2023-03-11T00:00:06.157Z,99.99
2023-03-11T00:01:06.514Z,99.99
2023-03-11T00:02:06.955Z,99.99
2023-03-11T00:03:07.199Z,99.99
2023-03-11T00:04:07.582Z,99.99
2023-03-11T00:05:07.914Z,99.99
2023-03-11T00:06:08.237Z,99.99
2023-03-11T00:07:08.580Z,99.99
2023-03-11T00:08:08.966Z,99.99
2023-03-11T00:09:09.276Z,99.99
2023-03-11T00:10:09.625Z,99.99
2023-03-11T00:11:09.988Z,99.99
2023-03-11T00:12:10.298Z,99.99
2023-03-11T00:13:10.656Z,99.99
2023-03-11T00:14:11.041Z,99.99
2023-03-11T00:15:11.350Z,99.99
2023-03-11T00:16:11.753Z,99.99
2023-03-11T00:17:12.039Z,99.99
2023-03-11T00:18:12.390Z,99.99
2023-03-11T00:19:12.760Z,99.99
2023-03-11T00:20:13.079Z,99.99
2023-03-11T00:21:13.414Z,99.99
2023-03-11T00:22:13.811Z,99.99
2023-03-11T00:23:14.156Z,99.99
2023-03-11T00:24:14.537Z,99.99
2023-03-11T00:25:14.831Z,99.99
2023-03-11T00:26:15.148Z,99.99
2023-03-11T00:27:15.488Z,99.99
2023-03-11T00:28:15.848Z,99.99
2023-03-11T00:29:16.213Z,99.99
2023-03-11T00:30:16.624Z,99.99
2023-03-11T00:31:17.014Z,99.99
2023-03-11T00:32:17.344Z,99.99
2023-03-11T00:33:17.625Z,99.99
2023-03-11T00:34:18.049Z,99.99
2023-03-11T00:35:18.327Z,99.99
2023-03-11T00:36:18.641Z,99.99
2023-03-11T00:37:19.018Z,99.99
2023-03-11T00:38:19.430Z,99.99
2023-03-11T00:39:19.722Z,99.99
2023-03-11T00:40:20.054Z,99.99
2023-03-11T00:41:20.426Z,99.99
2023-03-11T00:42:20.713Z,99.99
2023-03-11T00:43:21.086Z,99.99
2023-03-11T00:44:21.415Z,99.99
2023-03-11T00:45:21.826Z,99.99
2023-03-11T00:46:22.210Z,99.99
2023-03-11T00:47:22.493Z,99.99
2023-03-11T00:48:22.859Z,99.99
2023-03-11T00:49:23.201Z,99.99
2023-03-11T00:50:23.515Z,99.99
2023-03-11T00:51:23.891Z,99.99
2023-03-11T00:52:24.243Z,99.99
2023-03-11T00:53:24.569Z,99.99
2023-03-11T00:54:24.948Z,99.99
2023-03-11T00:55:25.272Z,99.99
2023-03-11T00:56:25.615Z,99.99
2023-03-11T00:57:25.950Z,99.99
2023-03-11T00:58:26.318Z,99.99
2023-03-11T00:59:26.657Z,99.99
2023-03-11T01:00:27.025Z,99.99
2023-03-11T01:01:27.441Z,99.99
2023-03-11T01:02:27.742Z,99.99
2023-03-11T01:03:28.060Z,99.99
2023-03-11T01:04:28.510Z,99.99
2023-03-11T01:05:28.783Z,99.99
2023-03-11T01:06:39.248Z,99.99
2023-03-11T01:07:29.565Z,99.99
2023-03-11T01:08:29.892Z,99.99
2023-03-11T01:09:30.272Z,99.99
2023-03-11T01:10:30.588Z,99.99
2023-03-11T01:11:30.925Z,99.99
2023-03-11T01:12:31.335Z,99.99
2023-03-11T01:13:31.660Z,99.99
2023-03-11T01:14:32.046Z,99.99
2023-03-11T01:15:32.441Z,99.99
2023-03-11T01:16:32.690Z,99.99
2023-03-11T01:17:33.139Z,99.99
2023-03-11T01:18:33.425Z,99.99
2023-03-11T01:19:33.835Z,99.99
2023-03-11T01:20:34.250Z,99.99
2023-03-11T01:21:34.528Z,99.99
2023-03-11T01:22:34.879Z,99.99
2023-03-11T01:23:35.219Z,99.99
2023-03-11T01:24:35.618Z,99.99
2023-03-11T01:25:35.921Z,99.99
2023-03-11T01:26:36.270Z,99.99
2023-03-11T01:27:36.668Z,99.99
2023-03-11T01:28:36.994Z,99.99
2023-03-11T01:29:37.392Z,99.99
2023-03-11T01:30:37.744Z,99.99
2023-03-11T01:31:38.075Z,99.99
2023-03-11T01:32:38.537Z,99.99
2023-03-11T01:33:38.792Z,99.99
2023-03-11T01:34:39.220Z,99.99
2023-03-11T01:35:39.573Z,99.99
2023-03-11T01:36:39.902Z,99.99
2023-03-11T01:37:40.259Z,99.99
2023-03-11T01:38:40.620Z,99.99
2023-03-11T01:39:41.009Z,99.99
2023-03-11T01:40:41.362Z,99.99
2023-03-11T01:41:41.719Z,99.99
2023-03-11T01:42:42.081Z,99.99
2023-03-11T01:43:42.439Z,99.99
2023-03-11T01:44:42.823Z,99.99
2023-03-11T01:45:43.153Z,99.99
2023-03-11T01:46:43.532Z,99.99
2023-03-11T01:47:43.886Z,99.99
2023-03-11T01:48:44.223Z,99.99
2023-03-11T01:49:44.619Z,99.99
2023-03-11T01:50:44.951Z,99.99
2023-03-11T01:51:45.302Z,99.99
2023-03-11T01:52:45.654Z,99.99
2023-03-11T01:53:46.016Z,99.99
2023-03-11T01:54:46.409Z,99.99
2023-03-11T01:55:46.793Z,99.99
2023-03-11T01:56:47.157Z,99.99
2023-03-11T01:57:47.505Z,99.99
2023-03-11T01:58:47.853Z,99.99
2023-03-11T01:59:50.427Z,99.99
2023-03-11T02:00:48.582Z,99.99
2023-03-11T02:01:49.932Z,99.99
2023-03-11T02:02:49.419Z,99.99
2023-03-11T02:03:49.638Z,99.99
2023-03-11T02:04:50.012Z,99.99
2023-03-11T02:05:50.361Z,99.99
2023-03-11T02:06:53.671Z,99.99
2023-03-11T02:07:51.086Z,99.99
2023-03-11T02:08:51.468Z,99.99
2023-03-11T02:09:51.814Z,99.99
2023-03-11T02:10:52.168Z,99.99
2023-03-11T02:11:52.520Z,99.99
2023-03-11T02:12:52.854Z,99.99
2023-03-11T02:13:53.212Z,99.99
2023-03-11T02:14:53.661Z,99.99
2023-03-11T02:15:53.998Z,99.99
2023-03-11T02:16:54.350Z,99.99
2023-03-11T02:17:54.697Z,99.99
2023-03-11T02:18:55.017Z,99.99
2023-03-11T02:19:55.410Z,99.99
2023-03-11T02:20:55.756Z,99.99
2023-03-11T02:21:56.124Z,99.99
2023-03-11T02:22:56.456Z,99.99
2023-03-11T02:23:56.813Z,99.99
2023-03-11T02:24:57.214Z,99.99
2023-03-11T02:25:57.588Z,99.99
2023-03-11T02:26:57.907Z,99.99
2023-03-11T02:27:58.250Z,99.99
2023-03-11T02:28:58.642Z,99.99
2023-03-11T02:29:58.986Z,99.99
2023-03-11T02:30:59.397Z,99.99
2023-03-11T02:31:59.692Z,99.99
2023-03-11T02:33:00.025Z,99.99
2023-03-11T02:34:00.413Z,99.99
2023-03-11T02:35:00.773Z,99.99
2023-03-11T02:36:01.169Z,99.99
2023-03-11T02:37:01.439Z,99.99
2023-03-11T02:38:01.844Z,99.99
2023-03-11T02:39:02.174Z,99.99
2023-03-11T02:40:02.611Z,99.99
2023-03-11T02:41:02.905Z,99.99
2023-03-11T02:42:03.239Z,99.99
2023-03-11T02:43:03.620Z,99.99
2023-03-11T02:44:03.966Z,99.99
2023-03-11T02:45:04.422Z,99.99
2023-03-11T02:46:04.687Z,99.99
2023-03-11T02:47:05.124Z,99.99
2023-03-11T02:48:05.431Z,99.99
2023-03-11T02:49:05.771Z,99.99
2023-03-11T02:50:06.189Z,99.99
2023-03-11T02:51:06.493Z,99.99
2023-03-11T02:52:06.864Z,99.99
2023-03-11T02:53:07.200Z,99.99
2023-03-11T02:54:07.541Z,99.99
2023-03-11T02:55:07.930Z,99.99
2023-03-11T02:56:08.241Z,99.99
2023-03-11T02:57:08.599Z,99.99
2023-03-11T02:58:09.005Z,99.99
2023-03-11T02:59:09.313Z,99.99
2023-03-11T03:00:09.683Z,99.99
2023-03-11T03:01:10.136Z,99.99
2023-03-11T03:02:10.401Z,99.99
2023-03-11T03:03:10.766Z,99.99
2023-03-11T03:04:11.185Z,99.99
2023-03-11T03:05:11.510Z,99.99
2023-03-11T03:06:11.838Z,99.99
2023-03-11T03:07:12.239Z,99.99
2023-03-11T03:08:12.571Z,99.99
2023-03-11T03:09:12.947Z,99.99
2023-03-11T03:10:13.296Z,99.99
2023-03-11T03:11:13.601Z,99.99
2023-03-11T03:12:14.023Z,99.99
2023-03-11T03:13:14.326Z,99.99
2023-03-11T03:14:14.692Z,99.99
2023-03-11T03:15:15.068Z,99.99
2023-03-11T03:16:15.393Z,99.99
2023-03-11T03:17:15.774Z,99.99
2023-03-11T03:18:16.100Z,99.99
2023-03-11T03:19:16.469Z,99.99
2023-03-11T03:20:16.853Z,99.99
2023-03-11T03:21:17.180Z,99.99
2023-03-11T03:22:17.571Z,99.99
2023-03-11T03:23:17.912Z,99.99
2023-03-11T03:24:18.295Z,99.99
2023-03-11T03:25:18.661Z,99.99
2023-03-11T03:26:19.025Z,99.99
2023-03-11T03:27:19.382Z,99.99
2023-03-11T03:28:19.888Z,99.99
2023-03-11T03:29:20.106Z,99.99
2023-03-11T03:30:20.504Z,99.99
2023-03-11T03:31:20.894Z,99.99
2023-03-11T03:32:21.227Z,99.99
2023-03-11T03:33:21.532Z,99.99
2023-03-11T03:34:21.911Z,99.99
2023-03-11T03:35:22.311Z,99.99
2023-03-11T03:36:22.602Z,99.99
2023-03-11T03:37:22.961Z,99.99
2023-03-11T03:38:23.322Z,99.99
2023-03-11T03:39:23.689Z,99.99
2023-03-11T03:40:24.055Z,99.99
2023-03-11T03:41:24.429Z,99.99
2023-03-11T03:42:24.771Z,99.99
2023-03-11T03:43:25.085Z,99.99
2023-03-11T03:44:25.505Z,99.99
2023-03-11T03:45:25.872Z,99.99
2023-03-11T03:46:26.306Z,99.99
2023-03-11T03:47:26.604Z,99.99
2023-03-11T03:48:26.966Z,99.99
2023-03-11T03:49:27.315Z,99.99
2023-03-11T03:50:27.692Z,99.99
2023-03-11T03:51:28.013Z,99.99
2023-03-11T03:52:28.415Z,99.99
2023-03-11T03:53:28.744Z,99.99
2023-03-11T03:54:29.127Z,99.99
2023-03-11T03:55:29.477Z,99.99
2023-03-11T03:56:29.881Z,99.99
2023-03-11T03:57:30.202Z,99.99
2023-03-11T03:58:30.563Z,99.99
2023-03-11T03:59:30.926Z,99.99
2023-03-11T04:00:31.280Z,99.99
2023-03-11T04:01:31.623Z,99.99
2023-03-11T04:02:32.051Z,99.99
2023-03-11T04:03:32.410Z,99.99
2023-03-11T04:04:32.709Z,99.99
2023-03-11T04:05:33.060Z,99.99
2023-03-11T04:06:33.424Z,99.99
2023-03-11T04:07:33.784Z,99.99
2023-03-11T04:08:34.125Z,99.99
2023-03-11T04:09:34.489Z,99.99
2023-03-11T04:10:34.854Z,99.99
2023-03-11T04:11:35.204Z,99.99
2023-03-11T04:12:35.560Z,99.99
2023-03-11T04:13:35.932Z,99.99
2023-03-11T04:14:36.255Z,99.99
2023-03-11T04:15:36.667Z,99.99
2023-03-11T04:16:37.058Z,99.99
2023-03-11T04:17:37.422Z,99.99
2023-03-11T04:18:37.777Z,99.99
2023-03-11T04:19:38.132Z,99.99
2023-03-11T04:20:38.489Z,99.99
2023-03-11T04:21:38.838Z,99.99
2023-03-11T04:22:39.172Z,99.99
2023-03-11T04:23:39.570Z,99.99
2023-03-11T04:24:39.909Z,99.99
2023-03-11T04:25:40.293Z,99.99
2023-03-11T04:26:40.655Z,99.99
2023-03-11T04:27:41.049Z,99.99
2023-03-11T04:28:41.344Z,99.99
2023-03-11T04:29:41.740Z,99.99
2023-03-11T04:30:42.201Z,99.99
2023-03-11T04:31:42.429Z,99.99
2023-03-11T04:32:42.781Z,99.99
2023-03-11T04:33:43.113Z,99.99
2023-03-11T04:34:43.453Z,99.99
2023-03-11T04:35:43.906Z,99.99
2023-03-11T04:36:44.174Z,99.99
2023-03-11T04:37:44.563Z,99.99
2023-03-11T04:38:44.878Z,99.99
2023-03-11T04:39:45.225Z,99.99
2023-03-11T04:40:45.634Z,99.99
2023-03-11T04:41:45.954Z,99.99
2023-03-11T04:42:46.328Z,99.99
2023-03-11T04:43:46.680Z,99.99
2023-03-11T04:44:47.022Z,99.99
2023-03-11T04:45:47.511Z,99.99
2023-03-11T04:46:47.729Z,99.99
2023-03-11T04:47:48.077Z,99.99
2023-03-11T04:48:48.417Z,99.99
2023-03-11T04:49:48.758Z,99.99
2023-03-11T04:50:49.170Z,99.99
2023-03-11T04:51:49.500Z,99.99
2023-03-11T04:52:49.848Z,99.99
2023-03-11T04:53:50.225Z,99.99
2023-03-11T04:54:50.582Z,99.99
2023-03-11T04:55:50.939Z,99.99
2023-03-11T04:56:51.278Z,99.99
2023-03-11T04:57:51.665Z,99.99
2023-03-11T04:58:52.004Z,99.99
2023-03-11T04:59:52.360Z,99.99
2023-03-11T05:00:52.735Z,99.99
2023-03-11T05:01:53.115Z,99.99
2023-03-11T05:02:53.512Z,99.99
2023-03-11T05:03:53.756Z,99.99
2023-03-11T05:04:54.172Z,99.99
2023-03-11T05:05:54.470Z,99.99
2023-03-11T05:06:54.822Z,99.99
2023-03-11T05:07:55.160Z,99.99
2023-03-11T05:08:55.529Z,99.99
2023-03-11T05:09:55.875Z,99.99
2023-03-11T05:10:56.259Z,99.99
2023-03-11T05:11:56.617Z,99.99
2023-03-11T05:12:56.996Z,99.99
2023-03-11T05:13:57.381Z,99.99
2023-03-11T05:14:57.735Z,99.99
2023-03-11T05:15:58.192Z,99.99
2023-03-11T05:16:58.487Z,99.99
2023-03-11T05:17:58.602Z,99.99
2023-03-11T05:18:58.879Z,99.99
2023-03-11T05:19:59.172Z,99.99
2023-03-11T05:21:00.542Z,99.99
2023-03-11T05:21:59.680Z,99.99
2023-03-11T05:22:59.951Z,99.99
2023-03-11T05:24:00.224Z,99.99
2023-03-11T05:25:00.516Z,99.99
2023-03-11T05:26:00.687Z,99.99
2023-03-11T05:27:00.844Z,99.99
2023-03-11T05:28:01.009Z,99.99
2023-03-11T05:29:01.306Z,99.99
2023-03-11T05:30:01.577Z,99.99
2023-03-11T05:31:01.965Z,99.99
2023-03-11T05:32:02.045Z,99.99
2023-03-11T05:33:02.207Z,99.99
2023-03-11T05:34:02.356Z,99.99
2023-03-11T05:35:02.546Z,99.99
2023-03-11T05:36:02.840Z,99.99
2023-03-11T05:37:03.392Z,99.99
2023-03-11T05:38:03.068Z,99.99
2023-03-11T05:39:03.259Z,99.99
2023-03-11T05:40:03.425Z,99.99
2023-03-11T05:41:03.641Z,99.99
2023-03-11T05:42:03.780Z,99.99
2023-03-11T05:43:03.963Z,99.99
2023-03-11T05:44:04.103Z,99.99
2023-03-11T05:45:04.294Z,99.99
2023-03-11T05:46:04.527Z,99.99
2023-03-11T05:47:04.607Z,99.99
2023-03-11T05:48:04.800Z,99.99
2023-03-11T05:49:04.969Z,99.99
2023-03-11T05:50:05.147Z,99.99
2023-03-11T05:51:05.335Z,99.99
2023-03-11T05:52:05.481Z,99.99
2023-03-11T05:53:05.648Z,99.99
2023-03-11T05:54:05.953Z,99.99
2023-03-11T05:55:06.131Z,99.99
2023-03-11T05:56:06.445Z,99.99
2023-03-11T05:57:06.614Z,99.99
2023-03-11T05:58:06.830Z,99.99
2023-03-11T05:59:06.958Z,99.99
2023-03-11T06:00:07.180Z,99.99
2023-03-11T06:01:07.477Z,99.99
2023-03-11T06:02:07.627Z,99.99
2023-03-11T06:03:07.817Z,99.99
2023-03-11T06:04:08.164Z,99.99
2023-03-11T06:05:08.680Z,99.99
2023-03-11T06:06:08.334Z,99.99
2023-03-11T06:07:08.495Z,99.99
2023-03-11T06:08:08.667Z,99.99
2023-03-11T06:09:08.872Z,99.99
2023-03-11T06:10:09.018Z,99.99
2023-03-11T06:11:09.343Z,99.99
2023-03-11T06:12:09.618Z,99.99
2023-03-11T06:13:09.819Z,99.99
2023-03-11T06:14:09.977Z,99.99
2023-03-11T06:15:10.281Z,99.99
2023-03-11T06:16:10.537Z,99.99
2023-03-11T06:17:10.651Z,99.99
2023-03-11T06:18:10.954Z,99.99
2023-03-11T06:19:11.163Z,99.99
2023-03-11T06:20:11.316Z,99.99
2023-03-11T06:21:11.493Z,99.99
2023-03-11T06:22:11.685Z,99.99
2023-03-11T06:23:11.972Z,99.99
2023-03-11T06:24:12.166Z,99.99
2023-03-11T06:25:12.335Z,99.99
2023-03-11T06:26:12.564Z,99.99
2023-03-11T06:27:12.853Z,99.99
2023-03-11T06:28:13.008Z,99.99
2023-03-11T06:29:13.186Z,99.99
2023-03-11T06:30:13.384Z,99.99
2023-03-11T06:31:13.646Z,99.99
2023-03-11T06:32:13.891Z,99.99
2023-03-11T06:33:14.053Z,99.99
2023-03-11T06:34:14.199Z,99.99
2023-03-11T06:35:14.370Z,99.99
2023-03-11T06:36:14.593Z,99.99
2023-03-11T06:37:14.865Z,99.99
2023-03-11T06:38:15.181Z,99.99
2023-03-11T06:39:15.340Z,99.99
2023-03-11T06:40:15.672Z,99.99
2023-03-11T06:41:15.824Z,99.99
2023-03-11T06:42:15.967Z,99.99
2023-03-11T06:43:16.270Z,99.99
2023-03-11T06:44:16.567Z,99.99
2023-03-11T06:45:18.853Z,99.99
2023-03-11T06:46:17.114Z,99.99
2023-03-11T06:47:17.144Z,99.99
2023-03-11T06:48:17.328Z,99.99
2023-03-11T06:49:17.479Z,99.99
2023-03-11T06:50:17.696Z,99.99
2023-03-11T06:51:17.988Z,99.99
2023-03-11T06:52:18.153Z,99.99
2023-03-11T06:53:18.313Z,99.99
2023-03-11T06:54:18.527Z,99.99
2023-03-11T06:55:18.721Z,99.99
2023-03-11T06:56:19.020Z,99.99
2023-03-11T06:57:19.312Z,99.99
2023-03-11T06:58:19.487Z,99.99
2023-03-11T06:59:19.654Z,99.99
2023-03-11T07:00:19.874Z,99.99
2023-03-11T07:01:20.134Z,99.99
2023-03-11T07:02:20.340Z,99.99
2023-03-11T07:03:20.528Z,99.99
2023-03-11T07:04:20.875Z,99.99
2023-03-11T07:05:21.033Z,99.99
2023-03-11T07:06:21.322Z,99.99
2023-03-11T07:07:21.520Z,99.99
2023-03-11T07:08:21.675Z,99.99
2023-03-11T07:09:21.958Z,99.99
2023-03-11T07:10:22.131Z,99.99
2023-03-11T07:11:22.409Z,99.99
2023-03-11T07:12:23.009Z,99.99
2023-03-11T07:13:22.689Z,99.99
2023-03-11T07:14:23.159Z,99.99
2023-03-11T07:15:23.076Z,99.99
2023-03-11T07:16:23.340Z,99.99
2023-03-11T07:17:23.414Z,99.99
2023-03-11T07:18:23.609Z,99.99
2023-03-11T09:20:38.144Z,99.99
2023-03-11T09:20:43.229Z,98.63
2023-03-11T09:21:43.378Z,98.32
2023-03-11T09:22:43.537Z,98.32
2023-03-11T09:23:44.590Z,98.43
2023-03-11T09:24:43.904Z,98.95
2023-03-11T09:25:44.089Z,99.95
2023-03-11T09:26:44.306Z,99.95
2023-03-11T09:27:44.522Z,99.99
2023-03-11T09:28:44.645Z,99.99
2023-03-11T09:29:44.865Z,99.84
2023-03-11T09:30:45.035Z,99.53
2023-03-11T09:31:45.282Z,99.84
2023-03-11T09:32:45.432Z,99.99
2023-03-11T09:33:45.518Z,99.74
2023-03-11T09:34:45.716Z,99.53
2023-03-11T09:35:45.951Z,99.53
2023-03-11T09:36:46.063Z,98.90
2023-03-11T09:37:46.249Z,99.22
2023-03-11T09:38:46.399Z,99.53
2023-03-11T09:39:46.579Z,99.90
2023-03-11T09:40:47.255Z,99.63
2023-03-11T09:41:57.591Z,99.22
2023-03-11T09:42:47.380Z,99.01
2023-03-11T09:43:47.674Z,98.80
2023-03-11T09:44:47.979Z,99.01
2023-03-11T09:45:48.140Z,99.27
2023-03-11T09:46:48.457Z,98.65
2023-03-11T09:47:48.494Z,98.28
2023-03-11T09:48:48.778Z,97.97
2023-03-11T09:49:49.004Z,98.02
2023-03-11T09:50:49.281Z,97.65
2023-03-11T09:51:49.449Z,97.71
2023-03-11T09:52:49.615Z,98.44
2023-03-11T09:53:49.834Z,98.55
2023-03-11T09:54:49.998Z,98.71
2023-03-11T09:55:50.163Z,98.60
2023-03-11T09:56:50.366Z,98.13
2023-03-11T09:57:50.527Z,98.23
2023-03-11T09:58:50.732Z,98.39
2023-03-11T09:59:51.004Z,98.39
2023-03-11T10:00:51.163Z,98.25
2023-03-11T10:01:51.419Z,97.94
2023-03-11T10:02:51.773Z,97.20
2023-03-11T10:03:51.844Z,97.58
2023-03-11T10:04:52.157Z,96.91
2023-03-11T10:05:52.343Z,96.39
2023-03-11T10:06:52.626Z,95.70
2023-03-11T10:07:52.804Z,96.22
2023-03-11T10:08:52.994Z,96.49
2023-03-11T10:09:53.156Z,95.83
2023-03-11T10:10:53.356Z,95.47
2023-03-11T10:11:53.548Z,95.15
2023-03-11T10:12:53.697Z,94.57
2023-03-11T10:13:53.875Z,94.82
2023-03-11T10:14:54.057Z,95.66
2023-03-11T10:15:54.228Z,96.03
2023-03-11T10:16:54.430Z,95.14
2023-03-11T10:17:54.579Z,95.30
2023-03-11T10:18:54.749Z,95.09
2023-03-11T10:19:54.930Z,94.62
2023-03-11T10:20:55.095Z,94.84
2023-03-11T10:21:55.301Z,94.16
2023-03-11T10:22:55.438Z,95.15
2023-03-11T10:23:55.601Z,94.57
2023-03-11T10:24:55.785Z,94.68
2023-03-11T10:25:55.981Z,94.64
2023-03-11T10:26:56.173Z,93.91
2023-03-11T10:27:56.336Z,94.18
2023-03-11T10:28:56.529Z,93.93
2023-03-11T10:29:56.729Z,92.51
2023-03-11T10:30:56.915Z,92.82
2023-03-11T10:31:57.250Z,92.72
2023-03-11T10:32:57.361Z,93.55
2023-03-11T10:33:57.491Z,93.93
2023-03-11T10:34:57.761Z,93.05
2023-03-11T10:35:57.922Z,91.39
2023-03-11T10:36:58.111Z,91.27
2023-03-11T10:37:58.294Z,91.93
2023-03-11T10:38:58.451Z,92.10
2023-03-11T10:39:58.646Z,92.26
2023-03-11T10:40:58.844Z,92.53
2023-03-11T10:41:59.102Z,92.80
2023-03-11T10:42:59.235Z,91.28
2023-03-11T10:43:59.414Z,90.91
2023-03-11T10:44:59.647Z,91.95
2023-03-11T10:45:59.926Z,91.43
2023-03-11T10:46:59.971Z,91.22
2023-03-11T10:48:00.159Z,91.06
2023-03-11T10:49:00.307Z,90.95
2023-03-11T10:50:00.461Z,91.16
2023-03-11T10:51:00.662Z,91.85
2023-03-11T10:52:00.882Z,93.43
2023-03-11T10:53:01.020Z,90.72
2023-03-11T10:54:01.219Z,89.42
2023-03-11T10:55:01.378Z,89.58
2023-03-11T10:56:01.579Z,87.76
2023-03-11T10:57:01.785Z,88.00
2023-03-11T10:58:01.979Z,88.69
2023-03-11T10:59:02.192Z,87.07
2023-03-11T11:00:02.370Z,86.82
2023-03-11T11:01:02.698Z,87.65
2023-03-11T11:02:02.810Z,87.19
2023-03-11T11:03:02.939Z,86.93
2023-03-11T11:04:03.167Z,88.34
2023-03-11T11:05:03.317Z,85.68
2023-03-11T11:06:03.576Z,86.19
2023-03-11T11:07:03.740Z,86.57
2023-03-11T11:08:03.890Z,87.03
2023-03-11T11:09:04.089Z,86.68
2023-03-11T11:10:04.269Z,86.57
2023-03-11T11:11:04.449Z,86.12
2023-03-11T11:12:04.650Z,85.39
2023-03-11T11:13:04.785Z,85.50
2023-03-11T11:14:04.992Z,86.70
2023-03-11T11:15:05.512Z,85.04
2023-03-11T11:16:05.355Z,84.46
2023-03-11T11:17:05.615Z,85.39
2023-03-11T11:18:05.705Z,85.39
2023-03-11T11:19:05.880Z,85.16
2023-03-11T11:20:06.128Z,87.09
2023-03-11T11:21:06.547Z,87.78
2023-03-11T11:22:09.433Z,87.99
2023-03-11T11:23:07.068Z,87.26
2023-03-11T11:24:06.852Z,86.78
2023-03-11T11:25:07.039Z,87.68
2023-03-11T11:26:07.227Z,87.22
2023-03-11T11:27:07.398Z,87.26
2023-03-11T11:28:07.598Z,86.26
2023-03-11T11:29:09.103Z,86.88
2023-03-11T11:30:07.960Z,86.78
2023-03-11T11:31:08.203Z,87.80
2023-03-11T11:32:08.358Z,86.15
2023-03-11T11:33:08.601Z,85.66
2023-03-11T11:34:08.738Z,85.95
2023-03-11T11:35:09.010Z,87.09
2023-03-11T11:36:09.292Z,87.80
2023-03-11T11:37:09.347Z,86.62
2023-03-11T11:38:09.511Z,85.69
2023-03-11T11:39:09.675Z,86.15
2023-03-11T11:40:11.247Z,85.14
2023-03-11T11:41:10.034Z,86.15
2023-03-11T11:42:10.259Z,86.45
2023-03-11T11:43:10.510Z,86.31
2023-03-11T11:44:10.566Z,85.55
2023-03-11T11:45:10.847Z,85.24
2023-03-11T11:46:10.989Z,84.80
2023-03-11T11:47:11.185Z,85.73
2023-03-11T11:48:11.501Z,85.31
2023-03-11T11:49:12.161Z,85.56
2023-03-11T11:50:11.774Z,86.00
2023-03-11T11:51:12.560Z,85.69
2023-03-11T11:52:12.211Z,85.03
2023-03-11T11:53:12.253Z,84.41
2023-03-11T11:54:12.521Z,84.23
2023-03-11T11:55:12.609Z,84.17
2023-03-11T11:56:12.835Z,85.11
2023-03-11T11:57:13.014Z,85.55
2023-03-11T11:58:13.176Z,84.82
2023-03-11T11:59:13.339Z,84.20
2023-03-11T12:00:13.542Z,84.72
2023-03-11T12:01:13.727Z,84.68
2023-03-11T12:02:13.923Z,84.13
2023-03-11T12:03:14.099Z,83.93
2023-03-11T12:04:14.297Z,84.17
2023-03-11T12:05:14.531Z,84.34
2023-03-11T12:06:14.737Z,83.86
2023-03-11T12:07:14.858Z,85.00
2023-03-11T12:08:15.043Z,84.31
2023-03-11T12:09:15.479Z,85.48
2023-03-11T12:10:22.830Z,83.86
2023-03-11T12:11:15.907Z,84.44
2023-03-11T12:12:15.799Z,84.20
2023-03-11T12:13:16.135Z,83.16
2023-03-11T12:14:16.230Z,82.82
2023-03-11T12:15:16.413Z,84.90
2023-03-11T12:16:16.659Z,85.27
2023-03-11T12:17:16.858Z,84.92
2023-03-11T12:18:16.943Z,84.23
2023-03-11T12:19:17.371Z,84.30
2023-03-11T12:20:17.302Z,83.58
2023-03-11T12:21:17.487Z,83.00
2023-03-11T12:22:17.682Z,84.47
2023-03-11T12:23:18.131Z,83.62
2023-03-11T12:24:18.017Z,83.75
2023-03-11T12:25:18.206Z,83.00
2023-03-11T12:26:18.547Z,84.75
2023-03-11T12:27:18.605Z,83.89
2023-03-11T12:28:18.824Z,83.51
2023-03-11T12:29:19.842Z,83.83
2023-03-11T12:30:19.173Z,84.09
2023-03-11T12:31:19.442Z,84.30
2023-03-11T12:32:19.620Z,83.12
2023-03-11T12:33:19.787Z,82.19
2023-03-11T12:34:19.915Z,83.26
2023-03-11T12:35:20.252Z,83.26
2023-03-11T12:36:20.534Z,83.54
2023-03-11T12:37:21.208Z,83.02
2023-03-11T12:38:20.925Z,83.09
2023-03-11T12:39:20.998Z,82.95
2023-03-11T12:40:21.196Z,80.50
2023-03-11T12:41:21.346Z,80.26
2023-03-11T12:42:21.556Z,82.44
2023-03-11T12:43:21.971Z,83.37
2023-03-11T12:44:21.871Z,82.54
2023-03-11T12:45:22.292Z,82.78
2023-03-11T12:46:22.276Z,81.12
2023-03-11T12:47:22.868Z,82.26
2023-03-11T12:48:22.671Z,81.05
2023-03-11T12:49:22.885Z,81.40
2023-03-11T12:50:23.016Z,82.40
2023-03-11T12:51:23.212Z,82.36
2023-03-11T12:52:23.398Z,80.40
2023-03-11T12:53:23.544Z,81.23
2023-03-11T12:54:23.743Z,81.67
2023-03-11T12:55:23.947Z,80.43
2023-03-11T12:56:24.129Z,80.50
2023-03-11T12:57:24.321Z,81.95
2023-03-11T12:58:24.484Z,81.81
2023-03-11T12:59:24.646Z,81.33
2023-03-11T13:00:24.850Z,82.08
2023-03-11T13:01:25.085Z,80.53
2023-03-11T13:02:25.209Z,80.46
2023-03-11T13:03:25.369Z,79.74
2023-03-11T13:04:25.569Z,80.11
2023-03-11T13:05:25.759Z,81.11
2023-03-11T13:06:26.014Z,79.19
2023-03-11T13:07:26.144Z,78.81
2023-03-11T13:08:26.333Z,79.53
2023-03-11T13:09:27.152Z,80.32
2023-03-11T13:10:26.769Z,79.43
2023-03-11T13:11:26.854Z,80.77
2023-03-11T13:12:27.115Z,79.97
2023-03-11T13:13:27.242Z,79.56
2023-03-11T13:14:27.435Z,78.11
2023-03-11T13:15:27.620Z,77.81
2023-03-11T13:16:27.816Z,77.94
2023-03-11T13:17:28.014Z,77.50
2023-03-11T13:18:28.166Z,78.46
2023-03-11T13:19:28.389Z,77.74
2023-03-11T13:20:28.568Z,77.12
2023-03-11T13:21:28.748Z,77.84
2023-03-11T13:22:29.150Z,78.43
2023-03-11T13:23:29.092Z,79.60
2023-03-11T13:24:29.280Z,80.81
2023-03-11T13:25:29.465Z,80.64
2023-03-11T13:26:29.698Z,80.26
2023-03-11T13:27:29.873Z,78.36
2023-03-11T13:28:30.012Z,76.36
2023-03-11T13:29:30.194Z,77.15
2023-03-11T13:30:30.407Z,76.74
2023-03-11T13:31:30.822Z,76.43
2023-03-11T13:32:30.956Z,77.43
2023-03-11T13:33:31.044Z,76.46
2023-03-11T13:34:31.221Z,75.53
2023-03-11T13:35:31.540Z,75.36
2023-03-11T13:36:31.610Z,75.70
2023-03-11T13:37:31.782Z,77.22
2023-03-11T13:38:31.969Z,77.29
2023-03-11T13:39:32.163Z,77.36
2023-03-11T13:40:32.312Z,77.98
2023-03-11T13:41:32.518Z,77.12
2023-03-11T13:42:32.704Z,77.36
2023-03-11T13:43:32.879Z,77.33
2023-03-11T13:44:33.041Z,77.26
2023-03-11T13:45:33.241Z,77.22
2023-03-11T13:46:33.406Z,76.56
2023-03-11T13:47:33.591Z,77.01
2023-03-11T13:48:36.054Z,78.22
2023-03-11T13:49:34.054Z,78.50
2023-03-11T13:50:34.293Z,78.39
2023-03-11T13:51:34.539Z,77.77
2023-03-11T13:52:34.865Z,77.56
2023-03-11T13:53:35.106Z,77.19
2023-03-11T13:54:35.311Z,77.91
2023-03-11T13:55:35.493Z,77.01
2023-03-11T13:56:35.790Z,77.29
2023-03-11T13:57:36.001Z,77.94
2023-03-11T13:58:36.290Z,76.15
2023-03-11T13:59:36.476Z,77.22
2023-03-11T14:00:36.650Z,77.91
2023-03-11T14:01:36.952Z,77.15
2023-03-11T14:02:37.266Z,75.29
2023-03-11T14:03:37.443Z,75.67
2023-03-11T14:04:37.732Z,76.43
2023-03-11T14:05:37.951Z,76.60
2023-03-11T14:06:38.245Z,76.12
2023-03-11T14:07:38.681Z,75.32
2023-03-11T14:08:38.725Z,74.88
2023-03-11T14:09:39.027Z,75.09
2023-03-11T14:10:39.311Z,75.40
2023-03-11T14:11:39.495Z,74.29
2023-03-11T14:12:39.706Z,74.91
2023-03-11T14:13:39.981Z,74.98
2023-03-11T14:14:40.169Z,74.95
2023-03-11T14:15:40.354Z,74.81
2023-03-11T14:16:40.560Z,74.40
2023-03-11T14:17:40.741Z,74.63
2023-03-11T14:18:40.913Z,74.08
2023-03-11T14:19:41.081Z,73.88
2023-03-11T14:20:41.540Z,74.08
2023-03-11T14:21:41.671Z,73.64
2023-03-11T14:22:41.871Z,72.30
2023-03-11T14:23:42.148Z,72.67
2023-03-11T14:24:42.345Z,73.88
2023-03-11T14:25:42.519Z,73.60
2023-03-11T14:26:42.704Z,72.98
2023-03-11T14:27:42.916Z,74.15
2023-03-11T14:28:44.957Z,73.88
2023-03-11T14:29:43.368Z,75.02
2023-03-11T14:30:43.661Z,75.12
2023-03-11T14:31:43.995Z,74.95
2023-03-11T14:32:44.179Z,74.84
2023-03-11T14:33:44.313Z,75.63
2023-03-11T14:34:44.617Z,74.63
2023-03-11T14:35:44.890Z,75.63
2023-03-11T14:36:45.092Z,75.32
2023-03-11T14:37:45.334Z,75.53
2023-03-11T14:38:45.445Z,75.46
2023-03-11T14:39:47.685Z,75.84
2023-03-11T14:40:46.058Z,75.12
2023-03-11T14:41:46.280Z,75.12
2023-03-11T14:42:46.592Z,75.22
2023-03-11T14:43:46.743Z,75.12
2023-03-11T14:44:47.035Z,74.63
2023-03-11T14:45:47.326Z,75.15
2023-03-11T14:46:47.507Z,75.98
2023-03-11T14:47:47.728Z,76.26
2023-03-11T14:48:47.989Z,76.29
2023-03-11T14:49:48.169Z,76.40
2023-03-11T14:50:48.388Z,76.61
2023-03-11T14:51:48.524Z,77.22
2023-03-11T14:52:48.740Z,77.60
2023-03-11T14:53:48.905Z,77.19
2023-03-11T14:54:49.058Z,76.64
2023-03-11T14:55:49.254Z,76.56